Time;durP1;ratioP1;P1;durP2;ratioP2;P2;SDS_P1;SDS_P2;PMS_P1;PMS_P2;Temp;Humidity;BMP_temperature;BMP_pressure;BME280_temperature;BME280_humidity;BME280_pressure;Samples;Min_cycle;Max_cycle;Signal;HPM_P1;HPM_P2
2022/06/07 00:00:34;;;;;;;15.45;6.28;;;13.10;99.90;;;;;;5032699;28;20060;-73
2022/06/07 00:03:02;;;;;;;11.90;5.15;;;13.10;99.90;;;;;;5034238;28;20054;-73
2022/06/07 00:05:30;;;;;;;15.00;5.63;;;13.00;99.90;;;;;;5016864;28;20044;-73
2022/06/07 00:07:58;;;;;;;10.65;5.60;;;13.00;99.90;;;;;;5036543;28;20048;-73
2022/06/07 00:10:26;;;;;;;11.85;5.78;;;13.00;99.90;;;;;;5037715;28;20045;-73
2022/06/07 00:12:54;;;;;;;17.20;5.43;;;12.90;99.90;;;;;;5019251;28;20033;-73
2022/06/07 00:15:22;;;;;;;13.60;5.93;;;12.90;99.90;;;;;;5020250;28;20049;-73
2022/06/07 00:17:49;;;;;;;12.40;6.05;;;12.80;99.90;;;;;;5020334;28;20057;-73
2022/06/07 00:20:18;;;;;;;15.57;6.22;;;12.80;99.90;;;;;;5036328;28;20065;-73
2022/06/07 00:22:46;;;;;;;13.15;5.85;;;12.70;99.90;;;;;;5037587;28;20053;-73
2022/06/07 00:25:14;;;;;;;13.05;6.13;;;12.60;99.90;;;;;;5020355;28;20053;-73
2022/06/07 00:27:43;;;;;;;15.45;5.88;;;12.60;99.90;;;;;;5036033;28;20364;-73
2022/06/07 00:30:11;;;;;;;;;;;12.50;99.90;;;;;;5037934;28;20045;-73
2022/06/07 00:32:39;;;;;;;13.20;6.60;;;12.50;99.90;;;;;;5036146;28;19925;-73
2022/06/07 00:35:07;;;;;;;;;;;12.40;99.90;;;;;;5037571;28;20468;-73
2022/06/07 00:37:34;;;;;;;15.27;6.05;;;12.30;99.90;;;;;;5019957;28;19944;-73
2022/06/07 00:40:03;;;;;;;11.23;5.95;;;12.30;99.90;;;;;;5018721;28;20060;-73
2022/06/07 00:42:31;;;;;;;12.48;6.28;;;12.20;99.90;;;;;;5036947;28;20050;-73
2022/06/07 00:44:59;;;;;;;14.75;6.95;;;12.10;99.90;;;;;;5019625;28;20483;-73
2022/06/07 00:47:29;;;;;;;17.88;6.93;;;12.00;99.90;;;;;;5035851;28;20491;-73
2022/06/07 00:50:12;;;;;;;18.58;7.03;;;12.00;99.90;;;;;;5003167;28;20360;-73
2022/06/07 00:52:39;;;;;;;12.93;6.97;;;11.90;99.90;;;;;;5035710;28;20052;-73
2022/06/07 00:55:09;;;;;;;14.43;7.47;;;11.80;99.90;;;;;;5019415;28;20049;-73
2022/06/07 00:57:44;;;;;;;14.93;7.15;;;11.70;99.90;;;;;;5019351;28;20045;-73
2022/06/07 01:00:22;;;;;;;13.23;7.47;;;11.60;99.90;;;;;;5040211;28;20057;-73
2022/06/07 01:02:52;;;;;;;18.08;8.15;;;11.60;99.90;;;;;;5039531;28;20053;-73
2022/06/07 01:05:20;;;;;;;16.80;9.05;;;11.50;99.90;;;;;;5056637;28;20053;-73
2022/06/07 01:10:44;;;;;;;14.10;8.10;;;11.40;99.90;;;;;;5055807;28;20037;-72
2022/06/07 01:13:28;;;;;;;15.23;8.80;;;11.40;99.90;;;;;;5054566;28;20041;-73
2022/06/07 01:16:07;;;;;;;20.60;9.52;;;11.30;99.90;;;;;;5055538;28;20056;-72
2022/06/07 01:18:45;;;;;;;16.90;9.38;;;11.30;99.90;;;;;;5055392;28;20080;-73
2022/06/07 01:21:34;;;;;;;17.52;9.00;;;11.20;99.90;;;;;;5039557;28;20050;-73
2022/06/07 01:24:04;;;;;;;21.63;11.02;;;11.10;99.90;;;;;;5055580;28;20040;-72
2022/06/07 01:26:39;;;;;;;19.17;9.77;;;11.20;99.90;;;;;;5054233;28;20045;-73
2022/06/07 01:29:10;;;;;;;19.40;11.02;;;11.10;99.90;;;;;;5055679;28;20041;-72
2022/06/07 01:31:39;;;;;;;23.77;9.65;;;11.10;99.90;;;;;;5055460;28;20044;-72
2022/06/07 01:34:07;;;;;;;15.30;9.43;;;11.10;99.90;;;;;;5054197;28;20049;-73
2022/06/07 01:36:35;;;;;;;25.17;9.63;;;11.10;99.90;;;;;;5055105;28;20321;-72
2022/06/07 01:41:55;;;;;;;16.30;8.98;;;11.00;99.90;;;;;;5055225;28;20266;-72
2022/06/07 01:44:35;;;;;;;21.08;9.15;;;11.00;99.90;;;;;;5055249;28;20052;-72
2022/06/07 01:47:04;;;;;;;19.33;9.63;;;11.00;99.90;;;;;;5053845;28;20048;-72
2022/06/07 01:49:34;;;;;;;18.48;9.43;;;10.90;99.90;;;;;;5055575;28;20040;-72
2022/06/07 01:52:04;;;;;;;18.30;8.93;;;10.80;99.90;;;;;;5055242;28;20353;-72
2022/06/07 01:54:35;;;;;;;16.10;9.02;;;10.80;99.90;;;;;;5053867;28;20041;-72
2022/06/07 01:57:05;;;;;;;18.90;8.68;;;10.70;99.90;;;;;;5054773;28;20490;-73
2022/06/07 01:59:34;;;;;;;23.73;9.38;;;10.70;99.90;;;;;;5053300;28;20060;-73
2022/06/07 02:02:02;;;;;;;15.63;9.57;;;10.60;99.90;;;;;;5054715;28;20356;-73
2022/06/07 02:04:29;;;;;;;19.05;10.50;;;10.60;99.90;;;;;;5054769;28;20045;-73
2022/06/07 02:06:57;;;;;;;23.98;9.07;;;10.60;99.90;;;;;;5053500;28;20112;-73
2022/06/07 02:09:33;;;;;;;17.80;9.00;;;10.60;99.90;;;;;;5054432;28;20475;-72
2022/06/07 02:12:01;;;;;;;16.88;9.07;;;10.60;99.90;;;;;;5054539;28;20051;-73
2022/06/07 02:14:29;;;;;;;17.63;8.57;;;10.50;99.90;;;;;;5053366;28;20056;-72
2022/06/07 02:16:57;;;;;;;15.63;8.10;;;10.50;99.90;;;;;;5054567;28;20041;-73
2022/06/07 02:19:35;;;;;;;12.00;8.10;;;10.50;99.90;;;;;;5053588;28;20063;-73
2022/06/07 02:22:04;;;;;;;15.88;8.25;;;10.50;99.90;;;;;;5054331;28;20049;-73
2022/06/07 02:24:32;;;;;;;15.50;7.55;;;10.60;99.90;;;;;;5054122;28;20463;-72
2022/06/07 02:27:07;;;;;;;12.98;7.45;;;10.60;99.90;;;;;;5053949;28;20048;-72
2022/06/07 02:29:42;;;;;;;18.65;6.90;;;10.50;99.90;;;;;;5054162;28;20044;-72
2022/06/07 02:32:42;;;;;;;11.55;6.07;;;10.50;99.90;;;;;;5054354;28;20490;-73
2022/06/07 02:35:10;;;;;;;11.82;5.95;;;10.40;99.90;;;;;;5001324;28;20080;-73
2022/06/07 02:37:39;;;;;;;13.43;5.63;;;10.40;99.90;;;;;;5037832;28;20049;-73
2022/06/07 02:40:07;;;;;;;13.07;5.47;;;10.40;99.90;;;;;;5053075;28;20048;-72
2022/06/07 02:42:35;;;;;;;11.63;5.50;;;10.30;99.90;;;;;;5054305;28;20045;-73
2022/06/07 02:45:03;;;;;;;10.02;4.82;;;10.30;99.90;;;;;;5054801;28;20060;-73
2022/06/07 02:47:30;;;;;;;;;;;10.30;99.90;;;;;;5053937;28;20056;-72
2022/06/07 02:50:05;;;;;;;8.90;4.53;;;10.20;99.90;;;;;;5054554;28;19928;-72
2022/06/07 02:52:36;;;;;;;12.23;4.28;;;10.20;99.90;;;;;;5036355;28;20049;-72
2022/06/07 02:55:30;;;;;;;11.00;4.40;;;10.20;99.90;;;;;;5049034;28;20399;-73
2022/06/07 02:58:05;;;;;;;12.27;4.68;;;10.10;99.90;;;;;;5053812;28;20475;-73
2022/06/07 03:00:33;;;;;;;10.82;4.30;;;10.10;99.90;;;;;;5052637;28;20075;-72
2022/06/07 03:03:02;;;;;;;10.38;4.60;;;10.10;99.90;;;;;;5053997;28;20045;-73
2022/06/07 03:05:32;;;;;;;9.65;4.10;;;10.00;99.90;;;;;;5054063;28;20045;-72
2022/06/07 03:08:04;;;;;;;6.28;3.50;;;10.00;99.90;;;;;;5053350;28;20053;-73
2022/06/07 03:10:33;;;;;;;6.88;3.55;;;9.90;99.90;;;;;;5053498;28;20044;-72
2022/06/07 03:13:02;;;;;;;9.95;3.97;;;9.90;99.90;;;;;;5052437;28;20373;-72
2022/06/07 03:15:30;;;;;;;10.88;3.72;;;9.90;99.90;;;;;;5054364;28;20056;-72
2022/06/07 03:18:01;;;;;;;8.63;3.75;;;9.90;99.90;;;;;;5053618;28;20383;-72
2022/06/07 03:20:41;;;;;;;;;;;9.90;99.90;;;;;;5052776;28;20471;-72
2022/06/07 03:23:10;;;;;;;12.95;3.90;;;9.80;99.90;;;;;;5054079;28;19920;-72
2022/06/07 03:25:40;;;;;;;8.50;3.88;;;9.80;99.90;;;;;;5052281;28;20126;-72
2022/06/07 03:28:08;;;;;;;9.38;3.70;;;9.70;99.90;;;;;;5053392;28;20052;-72
2022/06/07 03:30:39;;;;;;;7.70;3.78;;;9.70;99.90;;;;;;5036601;28;20053;-72
2022/06/07 03:33:09;;;;;;;11.00;3.55;;;9.70;99.90;;;;;;5052266;28;20041;-73
2022/06/07 03:35:38;;;;;;;6.13;3.33;;;9.70;99.90;;;;;;5053408;28;20048;-72
2022/06/07 03:38:06;;;;;;;6.70;3.50;;;9.60;99.90;;;;;;5053432;28;20048;-72
2022/06/07 03:40:44;;;;;;;10.10;3.83;;;9.60;99.90;;;;;;5053933;28;20037;-72
2022/06/07 03:43:20;;;;;;;8.93;3.67;;;9.60;99.90;;;;;;5040717;28;20064;-73
2022/06/07 03:45:48;;;;;;;9.95;3.22;;;9.60;99.90;;;;;;5055994;28;20048;-73
2022/06/07 03:48:17;;;;;;;8.55;3.45;;;9.60;99.90;;;;;;5057169;28;20379;-72
2022/06/07 03:50:48;;;;;;;6.18;3.28;;;9.60;99.90;;;;;;5057699;28;20375;-72
2022/06/07 03:53:17;;;;;;;10.55;3.85;;;9.60;99.90;;;;;;5056348;28;20044;-72
2022/06/07 03:55:47;;;;;;;9.38;3.35;;;9.60;99.90;;;;;;5057002;28;20052;-73
2022/06/07 03:58:18;;;;;;;9.32;3.92;;;9.60;99.90;;;;;;5057152;28;20037;-72
2022/06/07 04:00:46;;;;;;;6.97;3.80;;;9.60;99.90;;;;;;5055647;28;20379;-72
2022/06/07 04:03:14;;;;;;;8.23;3.83;;;9.50;99.90;;;;;;5024096;28;20063;-72
2022/06/07 04:05:43;;;;;;;9.65;3.90;;;9.50;99.90;;;;;;5039504;28;20048;-72
2022/06/07 04:08:14;;;;;;;10.43;3.70;;;9.50;99.90;;;;;;5057002;28;20045;-72
2022/06/07 04:10:50;;;;;;;11.43;3.17;;;9.50;99.90;;;;;;5040084;28;20060;-73
2022/06/07 04:13:23;;;;;;;8.68;3.97;;;9.50;99.90;;;;;;5056075;28;20048;-72
2022/06/07 04:15:54;;;;;;;8.85;3.40;;;9.40;99.90;;;;;;5056791;28;20052;-72
2022/06/07 04:18:23;;;;;;;9.48;3.60;;;9.40;99.90;;;;;;5056902;28;20041;-72
2022/06/07 04:20:54;;;;;;;7.55;3.60;;;9.40;99.90;;;;;;5055484;28;20060;-72
2022/06/07 04:23:23;;;;;;;12.18;3.90;;;9.50;99.90;;;;;;5056963;28;20041;-72
2022/06/07 04:25:51;;;;;;;8.82;3.90;;;9.40;99.90;;;;;;5055552;28;20471;-72
2022/06/07 04:28:18;;;;;;;8.52;3.35;;;9.50;99.90;;;;;;5056459;28;20056;-73
2022/06/07 04:30:49;;;;;;;8.73;3.30;;;9.50;99.90;;;;;;5056468;28;20044;-72
2022/06/07 04:33:23;;;;;;;7.03;3.40;;;9.40;99.90;;;;;;5055164;28;20049;-72
2022/06/07 04:35:53;;;;;;;9.23;3.13;;;9.50;99.90;;;;;;5056461;28;20040;-73
2022/06/07 04:38:24;;;;;;;14.05;3.75;;;9.50;99.90;;;;;;5056277;28;20041;-72
2022/06/07 04:40:53;;;;;;;8.27;3.55;;;9.50;99.90;;;;;;5055201;28;20045;-72
2022/06/07 04:43:21;;;;;;;9.00;3.78;;;9.50;99.90;;;;;;5056424;28;20049;-72
2022/06/07 04:45:50;;;;;;;8.85;3.38;;;9.50;99.90;;;;;;5038823;28;20052;-72
2022/06/07 04:48:23;;;;;;;7.43;3.13;;;9.50;99.90;;;;;;5056698;28;20049;-72
2022/06/07 04:51:09;;;;;;;6.55;3.47;;;9.60;99.90;;;;;;5040874;28;20053;-72
2022/06/07 04:53:47;;;;;;;8.68;3.25;;;9.60;99.90;;;;;;5055035;28;20045;-72
2022/06/07 04:56:23;;;;;;;5.80;3.28;;;9.60;99.90;;;;;;5055771;28;20052;-72
2022/06/07 04:58:52;;;;;;;10.32;3.40;;;9.70;99.90;;;;;;5055005;28;20041;-72
2022/06/07 05:01:27;;;;;;;7.43;3.30;;;9.70;99.90;;;;;;5018270;28;20052;-72
2022/06/07 05:03:57;;;;;;;16.40;3.50;;;9.80;99.90;;;;;;5003464;28;20060;-73
2022/06/07 05:06:39;;;;;;;10.82;2.92;;;9.80;99.90;;;;;;5002124;28;20407;-72
2022/06/07 05:09:33;;;;;;;9.18;3.35;;;9.90;99.90;;;;;;4986883;28;20061;-72
2022/06/07 05:12:10;;;;;;;11.13;3.20;;;9.90;99.90;;;;;;5019645;28;20041;-72
2022/06/07 05:14:46;;;;;;;6.10;3.05;;;10.00;99.90;;;;;;5019524;28;20048;-72
2022/06/07 05:17:18;;;;;;;9.45;3.20;;;10.10;99.90;;;;;;5019320;28;20042;-72
2022/06/07 05:19:52;;;;;;;8.05;2.88;;;10.10;99.90;;;;;;5018120;28;20482;-72
2022/06/07 05:22:20;;;;;;;9.55;2.75;;;10.20;99.90;;;;;;5036832;28;20064;-72
2022/06/07 05:24:54;;;;;;;9.30;2.65;;;10.30;99.90;;;;;;5002976;28;20057;-73
2022/06/07 05:27:31;;;;;;;6.22;2.88;;;10.30;99.90;;;;;;5017965;28;20057;-72
2022/06/07 05:30:03;;;;;;;7.80;2.78;;;10.40;99.90;;;;;;5018730;28;20468;-72
2022/06/07 05:32:53;;;;;;;7.50;3.00;;;10.50;99.90;;;;;;5018012;28;20046;-72
2022/06/07 05:35:28;;;;;;;8.48;2.58;;;10.50;99.90;;;;;;5036141;28;20052;-72
2022/06/07 05:38:02;;;;;;;6.95;2.83;;;10.60;99.90;;;;;;5018757;28;20048;-72
2022/06/07 05:40:33;;;;;;;9.63;2.83;;;10.70;99.90;;;;;;5017858;28;20037;-72
2022/06/07 05:43:02;;;;;;;6.30;3.40;;;10.70;99.90;;;;;;5018725;28;20048;-72
2022/06/07 05:45:40;;;;;;;12.10;3.03;;;10.80;99.90;;;;;;5017820;28;20045;-72
2022/06/07 05:48:15;;;;;;;7.80;2.63;;;10.90;99.90;;;;;;5018638;28;20045;-72
2022/06/07 05:50:48;;;;;;;11.40;2.72;;;10.90;99.90;;;;;;5035629;28;20072;-72
2022/06/07 05:53:19;;;;;;;8.35;2.67;;;11.00;99.90;;;;;;5017699;28;20053;-72
2022/06/07 05:55:47;;;;;;;6.40;2.25;;;11.00;99.90;;;;;;5018409;28;20056;-72
2022/06/07 05:58:16;;;;;;;17.33;2.78;;;11.10;99.90;;;;;;5002042;28;20506;-71
2022/06/07 06:00:46;;;;;;;7.43;2.40;;;11.10;99.90;;;;;;5046627;28;20049;-72
2022/06/07 06:03:19;;;;;;;9.63;2.55;;;11.20;99.90;;;;;;5022373;28;20049;-71
2022/06/07 06:05:48;;;;;;;8.15;2.45;;;11.30;99.90;;;;;;5053580;28;20483;-71
2022/06/07 06:11:19;;;;;;;6.95;2.10;;;11.50;99.90;;;;;;5038093;28;20063;-72
2022/06/07 06:13:59;;;;;;;7.70;2.08;;;11.50;99.90;;;;;;5053504;28;20064;-73
2022/06/07 06:16:28;;;;;;;6.55;2.05;;;11.70;99.90;;;;;;5054739;28;20055;-72
2022/06/07 06:18:58;;;;;;;7.75;2.28;;;11.70;99.90;;;;;;5037920;28;20048;-72
2022/06/07 06:21:39;;;;;;;7.32;1.80;;;11.80;99.90;;;;;;5054156;28;20037;-71
2022/06/07 06:24:09;;;;;;;9.23;2.10;;;11.90;99.90;;;;;;5053886;28;20056;-72
2022/06/07 06:26:39;;;;;;;6.82;2.13;;;12.00;99.90;;;;;;5036649;28;20376;-72
2022/06/07 06:29:10;;;;;;;7.10;1.85;;;12.10;99.90;;;;;;5053998;28;20045;-71
2022/06/07 06:31:40;;;;;;;7.45;2.08;;;12.10;99.90;;;;;;5037439;28;20053;-72
2022/06/07 06:34:12;;;;;;;9.60;1.70;;;12.20;99.90;;;;;;5052868;28;20041;-71
2022/06/07 06:36:40;;;;;;;;;;;12.40;99.90;;;;;;5053910;28;20056;-72
2022/06/07 06:39:20;;;;;;;8.15;1.58;;;12.50;99.90;;;;;;5052821;28;19927;-71
2022/06/07 06:41:51;;;;;;;7.00;1.70;;;12.70;99.90;;;;;;5053952;28;20041;-72
2022/06/07 06:44:24;;;;;;;4.82;1.42;;;12.90;99.90;;;;;;5053844;28;20049;-72
2022/06/07 06:46:55;;;;;;;9.40;1.80;;;13.00;99.90;;;;;;5052553;28;20471;-72
2022/06/07 06:49:24;;;;;;;5.78;1.15;;;13.20;99.90;;;;;;5054357;28;20049;-71
2022/06/07 06:51:54;;;;;;;5.80;1.40;;;13.30;99.90;;;;;;5053242;28;20052;-72
2022/06/07 06:54:30;;;;;;;7.78;1.50;;;13.40;99.90;;;;;;5052459;28;20041;-72
2022/06/07 06:57:03;;;;;;;6.90;1.40;;;13.50;99.90;;;;;;5053523;28;20045;-72
2022/06/07 06:59:32;;;;;;;4.35;1.30;;;13.60;99.90;;;;;;5052096;28;20052;-72
2022/06/07 07:02:01;;;;;;;9.43;1.77;;;13.70;99.90;;;;;;5053506;28;20041;-71
2022/06/07 07:04:41;;;;;;;7.53;1.20;;;13.70;99.90;;;;;;5053271;28;20041;-72
2022/06/07 07:07:09;;;;;;;6.88;1.38;;;13.80;99.90;;;;;;5052056;28;20052;-72
2022/06/07 07:09:37;;;;;;;3.35;1.25;;;13.80;99.90;;;;;;5053631;28;20049;-75
2022/06/07 07:12:10;;;;;;;6.25;1.40;;;13.90;99.90;;;;;;5053714;28;20045;-72
2022/06/07 07:14:50;;;;;;;5.85;1.20;;;13.90;99.90;;;;;;5053232;28;20041;-72
2022/06/07 07:17:30;;;;;;;7.82;1.70;;;13.90;99.90;;;;;;5053529;28;20052;-72
2022/06/07 07:20:00;;;;;;;6.72;1.40;;;14.00;99.90;;;;;;5042846;28;20380;-74
2022/06/07 07:22:30;;;;;;;5.22;1.55;;;14.00;99.90;;;;;;5050814;28;20045;-73
2022/06/07 07:24:58;;;;;;;;;;;14.00;99.90;;;;;;5027156;28;20065;-72
2022/06/07 07:27:26;;;;;;;3.22;1.05;;;14.10;99.90;;;;;;5015415;28;20363;-71
2022/06/07 07:29:55;;;;;;;6.95;1.30;;;14.10;99.90;;;;;;5049145;28;20628;-72
2022/06/07 07:32:26;;;;;;;5.38;1.40;;;14.10;99.90;;;;;;5013937;28;20045;-72
2022/06/07 07:34:55;;;;;;;6.93;1.10;;;14.10;99.90;;;;;;5033411;28;20402;-72
2022/06/07 07:37:28;;;;;;;4.75;1.20;;;14.10;99.90;;;;;;5017573;28;20064;-71
2022/06/07 07:40:08;;;;;;;4.05;0.90;;;14.10;99.90;;;;;;5032576;28;20045;-72
2022/06/07 07:42:36;;;;;;;5.07;1.10;;;14.20;99.90;;;;;;5033484;28;20128;-72
2022/06/07 07:45:10;;;;;;;2.50;0.80;;;14.30;99.90;;;;;;5033818;28;20057;-72
2022/06/07 07:47:40;;;;;;;4.57;0.90;;;14.30;99.90;;;;;;5032319;28;20049;-72
2022/06/07 07:50:11;;;;;;;4.10;0.88;;;14.40;99.90;;;;;;5016398;28;20042;-72
2022/06/07 07:52:43;;;;;;;2.95;1.10;;;14.50;99.90;;;;;;5033174;28;20133;-73
2022/06/07 07:55:13;;;;;;;2.15;0.90;;;14.60;99.90;;;;;;5033467;28;20057;-73
2022/06/07 07:57:43;;;;;;;4.57;1.00;;;14.60;99.90;;;;;;5033128;28;20052;-72
2022/06/07 08:00:16;;;;;;;4.32;1.20;;;14.60;99.90;;;;;;5031830;28;20057;-73
2022/06/07 08:02:52;;;;;;;3.13;0.93;;;14.70;99.90;;;;;;5034082;28;20058;-72
2022/06/07 08:05:38;;;;;;;4.40;1.00;;;14.80;99.90;;;;;;5032378;28;20056;-73
2022/06/07 08:08:07;;;;;;;6.30;0.70;;;14.90;99.90;;;;;;5034199;28;20049;-72
2022/06/07 08:10:34;;;;;;;2.33;0.73;;;15.00;99.90;;;;;;5034524;28;20372;-72
2022/06/07 08:13:03;;;;;;;4.68;0.93;;;15.00;99.90;;;;;;5032590;28;20041;-73
2022/06/07 08:15:33;;;;;;;3.28;0.98;;;13.60;99.90;;;;;;5033665;28;20448;-72
2022/06/07 08:18:04;;;;;;;3.10;0.75;;;15.10;99.90;;;;;;5034109;28;20376;-73
2022/06/07 08:20:35;;;;;;;3.45;1.00;;;15.20;99.90;;;;;;5032944;28;20052;-73
2022/06/07 08:23:05;;;;;;;2.60;0.80;;;15.50;99.90;;;;;;5032950;28;20045;-73
2022/06/07 08:25:33;;;;;;;5.70;1.23;;;15.30;99.90;;;;;;5033141;28;20060;-72
2022/06/07 08:28:02;;;;;;;;;;;15.40;99.90;;;;;;5034652;28;20049;-73
2022/06/07 08:30:30;;;;;;;3.72;1.00;;;15.40;99.90;;;;;;5036803;28;19928;-73
2022/06/07 08:32:59;;;;;;;7.68;1.13;;;15.40;99.90;;;;;;5036292;28;20049;-72
2022/06/07 08:38:13;;;;;;;12.48;1.52;;;15.60;99.90;;;;;;5037548;28;20471;-73
2022/06/07 08:40:43;;;;;;;6.28;1.20;;;15.80;99.90;;;;;;5036072;28;20049;-73
2022/06/07 08:43:14;;;;;;;5.80;1.10;;;15.90;99.90;;;;;;5019529;28;20057;-73
2022/06/07 08:45:46;;;;;;;4.40;0.80;;;16.10;99.90;;;;;;5035228;28;20056;-72
2022/06/07 08:48:15;;;;;;;3.53;1.02;;;16.20;99.90;;;;;;5037491;28;20357;-73
2022/06/07 08:50:48;;;;;;;6.55;0.93;;;16.30;99.90;;;;;;5036047;28;20045;-73
2022/06/07 08:53:24;;;;;;;4.32;0.93;;;16.50;99.90;;;;;;5036124;28;20052;-73
2022/06/07 08:55:57;;;;;;;7.10;1.10;;;16.60;99.90;;;;;;5036362;28;20053;-73
2022/06/07 08:58:34;;;;;;;5.32;1.05;;;16.90;99.90;;;;;;5035562;28;20052;-73
2022/06/07 09:01:18;;;;;;;4.38;1.20;;;17.10;99.90;;;;;;5016747;28;20053;-73
2022/06/07 09:04:04;;;;;;;3.78;0.93;;;17.30;99.90;;;;;;5017024;28;20038;-73
2022/06/07 09:06:36;;;;;;;7.20;1.20;;;17.50;99.90;;;;;;5015978;28;20054;-72
2022/06/07 09:09:06;;;;;;;7.40;1.45;;;17.60;99.90;;;;;;5016832;28;20345;-74
2022/06/07 09:14:38;;;;;;;3.25;1.02;;;17.90;99.90;;;;;;5015836;28;20052;-73
2022/06/07 09:17:17;;;;;;;3.20;1.00;;;18.00;99.90;;;;;;5016401;28;20049;-73
2022/06/07 09:19:47;;;;;;;3.97;0.90;;;18.00;99.90;;;;;;4998650;28;20050;-73
2022/06/07 09:22:21;;;;;;;4.97;1.00;;;18.10;99.90;;;;;;5016574;28;20056;-73
2022/06/07 09:24:59;;;;;;;2.50;0.90;;;18.10;99.90;;;;;;5016456;28;20045;-73
2022/06/07 09:27:32;;;;;;;4.90;1.02;;;18.30;99.90;;;;;;5015538;28;20379;-73
2022/06/07 09:30:17;;;;;;;4.85;1.30;;;17.90;99.90;;;;;;5016379;28;20054;-75
2022/06/07 09:32:50;;;;;;;4.50;1.02;;;18.70;99.90;;;;;;4998130;28;20495;-73
2022/06/07 09:35:33;;;;;;;3.92;1.10;;;18.90;99.90;;;;;;5016212;28;20049;-72
2022/06/07 09:38:05;;;;;;;4.65;1.13;;;19.10;99.90;;;;;;4998936;28;20068;-72
2022/06/07 09:40:36;;;;;;;5.07;1.30;;;19.40;99.90;;;;;;5015337;28;20050;-73
2022/06/07 09:43:17;;;;;;;3.88;1.10;;;19.50;99.90;;;;;;5016613;28;20479;-73
2022/06/07 09:45:44;;;;;;;3.67;0.93;;;19.70;99.90;;;;;;4997663;28;20056;-73
2022/06/07 09:48:35;;;;;;;6.32;1.10;;;19.80;99.90;;;;;;5015858;28;20046;-73
2022/06/07 09:51:16;;;;;;;6.25;1.40;;;20.00;99.90;;;;;;4999335;28;20053;-73
2022/06/07 09:53:56;;;;;;;3.67;0.85;;;20.00;99.00;;;;;;5022087;28;20357;-72
2022/06/07 09:56:46;;;;;;;3.40;1.05;;;20.20;99.20;;;;;;5032592;28;20042;-73
2022/06/07 09:59:32;;;;;;;;;;;20.30;99.40;;;;;;5035189;28;20045;-74
2022/06/07 10:02:28;;;;;;;3.30;0.95;;;20.40;98.50;;;;;;5035687;28;19928;-74
2022/06/07 10:05:17;;;;;;;6.75;1.20;;;20.50;97.90;;;;;;5036293;28;20064;-74
2022/06/07 10:08:08;;;;;;;4.57;1.20;;;20.50;97.90;;;;;;5034719;28;20468;-72
2022/06/07 10:11:24;;;;;;;4.45;1.02;;;20.60;98.50;;;;;;5035612;28;20046;-72
2022/06/07 10:14:10;;;;;;;3.78;1.25;;;20.70;97.50;;;;;;5002460;28;20053;-72
2022/06/07 10:16:54;;;;;;;4.88;1.13;;;20.80;97.90;;;;;;5016143;28;20141;-72
2022/06/07 10:19:59;;;;;;;3.50;1.02;;;21.00;97.90;;;;;;5027670;28;20056;-73
2022/06/07 10:22:55;;;;;;;3.08;0.80;;;21.10;96.80;;;;;;4999433;28;20050;-73
2022/06/07 10:25:49;;;;;;;4.03;1.00;;;21.40;96.20;;;;;;5010787;28;20472;-72
2022/06/07 10:28:34;;;;;;;4.20;1.02;;;21.50;96.10;;;;;;5035252;28;20049;-72
2022/06/07 10:31:11;;;;;;;5.53;1.20;;;21.50;95.80;;;;;;5035310;28;20372;-73
2022/06/07 10:33:51;;;;;;;4.95;1.50;;;21.50;96.40;;;;;;5034185;28;20049;-75
2022/06/07 10:36:40;;;;;;;5.65;1.67;;;21.60;97.00;;;;;;5035517;28;20345;-74
2022/06/07 10:39:38;;;;;;;4.55;1.55;;;21.70;96.80;;;;;;4999444;28;20049;-72
2022/06/07 10:42:21;;;;;;;5.45;1.30;;;21.70;97.50;;;;;;4998984;28;20046;-72
2022/06/07 10:45:02;;;;;;;5.88;1.80;;;21.80;97.90;;;;;;4998949;28;20042;-75
2022/06/07 10:48:01;;;;;;;5.10;1.50;;;21.90;98.30;;;;;;4997780;28;20050;-74
2022/06/07 10:51:02;;;;;;;7.15;1.52;;;21.90;98.50;;;;;;5014768;28;20054;-74
2022/06/07 10:53:49;;;;;;;5.55;1.60;;;21.70;98.60;;;;;;4989685;28;20065;-74
2022/06/07 10:56:23;;;;;;;;;;;21.70;98.40;;;;;;4998592;28;20476;-75
2022/06/07 10:58:54;;;;;;;5.75;1.70;;;21.80;99.10;;;;;;5030563;28;19921;-75
2022/06/07 11:01:32;;;;;;;3.75;1.40;;;21.90;98.90;;;;;;5017795;28;20049;-76
2022/06/07 11:10:19;;;;;;;3.53;1.10;;;21.60;97.80;;;;;;5003178;28;20376;-72
2022/06/07 11:13:00;;;;;;;2.75;0.70;;;21.50;98.50;;;;;;5022099;28;20483;-72
2022/06/07 11:15:44;;;;;;;3.75;0.90;;;21.50;98.30;;;;;;5035202;28;20491;-72
2022/06/07 11:18:20;;;;;;;2.75;0.70;;;21.70;97.10;;;;;;5017096;28;20052;-72
2022/06/07 11:21:01;;;;;;;2.47;0.70;;;21.80;97.80;;;;;;5033157;28;20038;-73
2022/06/07 11:23:42;;;;;;;4.95;0.90;;;22.00;97.10;;;;;;5011841;28;20054;-74
2022/06/07 11:26:14;;;;;;;6.55;1.20;;;22.20;97.10;;;;;;4995624;28;20049;-74
2022/06/07 11:28:48;;;;;;;2.63;1.08;;;22.20;97.40;;;;;;5014621;28;20047;-75
2022/06/07 11:31:39;;;;;;;3.77;1.20;;;22.20;97.40;;;;;;4997328;28;20046;-75
2022/06/07 11:34:12;;;;;;;5.50;1.05;;;22.10;97.30;;;;;;5013695;28;20042;-73
2022/06/07 11:36:41;;;;;;;4.88;1.60;;;22.10;97.60;;;;;;5014367;28;20050;-74
2022/06/07 11:39:24;;;;;;;5.55;1.30;;;21.90;97.40;;;;;;5013305;28;20050;-74
2022/06/07 11:41:54;;;;;;;4.30;1.10;;;21.80;97.60;;;;;;5014495;28;20054;-73
2022/06/07 11:44:29;;;;;;;3.53;1.13;;;21.70;98.00;;;;;;4997403;28;20065;-74
2022/06/07 11:47:22;;;;;;;3.65;1.00;;;21.70;97.50;;;;;;5013478;28;20061;-73
2022/06/07 11:49:50;;;;;;;4.15;1.02;;;21.80;97.90;;;;;;5014340;28;20054;-73
2022/06/07 11:52:22;;;;;;;2.65;0.95;;;21.90;98.00;;;;;;5014113;28;20042;-74
2022/06/07 11:54:56;;;;;;;3.45;1.08;;;22.00;97.80;;;;;;4997184;28;20046;-73
2022/06/07 11:57:53;;;;;;;2.85;1.25;;;22.10;97.40;;;;;;4997191;28;20049;-73
2022/06/07 12:00:23;;;;;;;4.85;1.25;;;22.10;96.80;;;;;;5013175;28;20042;-74
2022/06/07 12:02:56;;;;;;;7.05;1.42;;;22.00;97.60;;;;;;5018159;28;20053;-73
2022/06/07 12:05:47;;;;;;;4.82;1.20;;;21.90;97.70;;;;;;5001129;28;20061;-73
2022/06/07 12:08:57;;;;;;;5.53;1.10;;;21.90;97.80;;;;;;5017608;28;20054;-73
2022/06/07 12:11:27;;;;;;;3.97;1.10;;;21.80;97.20;;;;;;4941779;29;20464;-75
2022/06/07 12:14:10;;;;;;;3.78;1.50;;;21.60;97.90;;;;;;4956810;29;20474;-74
2022/06/07 12:16:41;;;;;;;4.18;1.60;;;21.40;98.50;;;;;;4996081;28;20053;-73
2022/06/07 12:19:32;;;;;;;5.50;1.60;;;21.10;99.20;;;;;;4999810;28;20053;-73
2022/06/07 12:22:05;;;;;;;3.42;1.80;;;20.90;99.90;;;;;;5017415;28;20053;-72
2022/06/07 12:24:44;;;;;;;5.63;2.10;;;20.60;99.90;;;;;;5017440;28;20058;-74
2022/06/07 12:27:29;;;;;;;6.60;2.22;;;20.20;99.90;;;;;;4999370;28;20046;-74
2022/06/07 12:30:18;;;;;;;2.80;1.40;;;19.80;99.90;;;;;;5017452;28;20057;-72
2022/06/07 12:32:49;;;;;;;2.35;1.30;;;19.40;99.90;;;;;;4998989;28;20042;-73
2022/06/07 12:35:23;;;;;;;2.83;1.45;;;19.00;99.90;;;;;;5017329;28;20046;-73
2022/06/07 12:37:56;;;;;;;1.83;1.10;;;18.80;99.90;;;;;;5016967;28;20060;-73
2022/06/07 12:40:35;;;;;;;3.42;1.30;;;18.60;99.90;;;;;;5016211;28;20041;-74
2022/06/07 12:43:03;;;;;;;1.67;0.75;;;18.60;99.90;;;;;;5017209;28;20046;-73
2022/06/07 12:45:34;;;;;;;4.32;0.80;;;18.60;99.90;;;;;;5017536;28;20060;-73
2022/06/07 12:48:15;;;;;;;2.55;1.08;;;18.50;99.90;;;;;;5016394;28;20321;-73
2022/06/07 12:50:45;;;;;;;2.40;1.00;;;18.40;99.90;;;;;;5017440;28;20045;-73
2022/06/07 12:53:26;;;;;;;0.80;0.60;;;18.50;99.90;;;;;;4998799;28;20046;-73
2022/06/07 12:55:57;;;;;;;1.02;0.52;;;18.70;99.90;;;;;;5017359;28;20439;-73
2022/06/07 12:58:30;;;;;;;1.27;0.70;;;18.80;99.90;;;;;;5017032;28;20046;-73
2022/06/07 13:00:58;;;;;;;2.28;0.60;;;18.90;99.90;;;;;;5015868;28;20042;-72
2022/06/07 13:03:32;;;;;;;1.63;0.60;;;19.10;99.90;;;;;;5017121;28;20062;-73
2022/06/07 13:06:06;;;;;;;1.75;0.70;;;19.20;99.90;;;;;;5016046;28;20041;-73
2022/06/07 13:08:38;;;;;;;2.67;1.00;;;19.20;99.90;;;;;;5000045;28;20050;-72
2022/06/07 13:11:15;;;;;;;2.33;0.88;;;19.20;99.90;;;;;;4999981;28;20038;-73
2022/06/07 13:13:45;;;;;;;2.85;0.80;;;19.00;99.90;;;;;;5015133;28;20456;-73
2022/06/07 13:16:48;;;;;;;2.28;0.80;;;18.90;99.90;;;;;;5017044;28;20049;-73
2022/06/07 13:19:17;;;;;;;0.80;0.40;;;18.90;99.90;;;;;;4967030;28;20368;-72
2022/06/07 13:21:48;;;;;;;1.52;0.40;;;18.70;99.90;;;;;;5016612;28;20104;-72
2022/06/07 13:24:37;;;;;;;1.98;0.30;;;18.70;99.90;;;;;;5016811;28;20050;-72
2022/06/07 13:27:21;;;;;;;1.17;0.30;;;18.60;99.90;;;;;;5015345;28;20479;-73
2022/06/07 13:29:49;;;;;;;0.93;0.22;;;18.40;99.90;;;;;;4999708;28;20365;-72
2022/06/07 13:32:26;;;;;;;0.38;0.30;;;18.40;99.90;;;;;;5016361;28;20053;-72
2022/06/07 13:35:02;;;;;;;1.77;0.37;;;18.30;99.90;;;;;;5016612;28;20372;-73
2022/06/07 13:37:31;;;;;;;0.32;0.13;;;18.20;99.90;;;;;;4999282;28;20587;-73
2022/06/07 13:40:23;;;;;;;2.15;0.20;;;18.10;99.90;;;;;;5015120;28;20364;-72
2022/06/07 13:43:01;;;;;;;0.73;0.20;;;17.90;99.90;;;;;;5016257;28;20054;-72
2022/06/07 13:45:30;;;;;;;0.90;0.15;;;17.70;99.90;;;;;;5016220;28;20475;-72